createdAt,value
2022-08-03T00:10:49.095Z,27.50
2022-08-03T00:25:53.674Z,27.40
2022-08-03T00:40:58.289Z,27.20
2022-08-03T00:56:02.889Z,27.00
2022-08-03T01:11:16.148Z,26.90
2022-08-03T01:26:43.499Z,26.80
2022-08-03T01:41:52.082Z,27.00
2022-08-03T01:56:59.405Z,26.80
2022-08-03T02:12:04.599Z,26.70
2022-08-03T02:27:14.327Z,26.50
2022-08-03T02:42:22.500Z,26.50
2022-08-03T02:57:29.026Z,26.60
2022-08-03T03:12:36.713Z,26.50
2022-08-03T03:27:41.643Z,26.40
2022-08-03T03:42:53.572Z,26.30
2022-08-03T03:57:58.053Z,26.30
2022-08-03T04:13:05.170Z,26.20
2022-08-03T04:28:30.807Z,26.20
2022-08-03T04:43:36.072Z,26.00
2022-08-03T04:58:40.449Z,26.10
2022-08-03T05:13:45.258Z,26.10
2022-08-03T05:28:51.206Z,26.20
2022-08-03T05:43:56.784Z,26.10
2022-08-03T05:59:11.520Z,26.20
2022-08-03T06:14:25.992Z,26.10
2022-08-03T06:29:30.437Z,26.20
2022-08-03T06:44:35.297Z,26.30
2022-08-03T07:00:08.125Z,26.40
2022-08-03T07:15:05.615Z,26.30
2022-08-03T07:30:11.271Z,26.60
2022-08-03T07:45:16.701Z,26.70
2022-08-03T08:00:21.420Z,26.70
2022-08-03T08:15:26.175Z,26.80
2022-08-03T08:30:30.907Z,26.90
2022-08-03T08:45:35.910Z,26.90
2022-08-03T09:00:40.327Z,27.10
2022-08-03T09:16:00.986Z,27.20
2022-08-03T09:31:05.999Z,27.30
2022-08-03T09:46:10.439Z,27.50
2022-08-03T10:01:24.251Z,27.80
2022-08-03T10:16:34.021Z,27.90
2022-08-03T10:31:57.424Z,27.90
2022-08-03T10:47:02.762Z,28.30
2022-08-03T11:02:09.970Z,28.50
2022-08-03T11:17:14.670Z,28.60
2022-08-03T11:32:53.540Z,28.60
2022-08-03T11:47:59.176Z,29.20
2022-08-03T12:03:06.633Z,29.00
2022-08-03T12:18:18.865Z,29.60
2022-08-03T12:33:25.380Z,29.60
2022-08-03T12:48:29.779Z,30.50
2022-08-03T13:03:43.348Z,30.10
2022-08-03T13:18:49.848Z,30.20
2022-08-03T13:33:54.243Z,30.70
2022-08-03T13:48:58.657Z,31.40
2022-08-03T14:04:03.016Z,32.70
2022-08-03T14:19:07.677Z,36.40
2022-08-03T14:34:12.706Z,39.40
2022-08-03T14:50:30.924Z,40.00
2022-08-03T15:04:41.467Z,42.00
2022-08-03T15:20:03.517Z,42.20
2022-08-03T15:35:11.352Z,42.50
2022-08-03T15:50:15.765Z,43.40
2022-08-03T16:05:20.220Z,43.30
2022-08-03T16:20:34.473Z,40.90
2022-08-03T16:35:39.987Z,38.40
2022-08-03T16:50:44.554Z,36.80
2022-08-03T17:05:49.785Z,35.70
2022-08-03T17:20:55.940Z,34.80
2022-08-03T17:36:00.640Z,34.20
2022-08-03T17:51:11.508Z,33.70
2022-08-03T18:06:27.918Z,33.40
2022-08-03T18:22:03.057Z,33.00
2022-08-03T18:37:00.533Z,32.80
2022-08-03T18:52:16.536Z,32.40
2022-08-03T19:07:28.680Z,32.10
2022-08-03T19:38:05.554Z,31.70
2022-08-03T19:53:14.181Z,31.50
2022-08-03T20:08:20.863Z,31.30
2022-08-03T20:23:27.824Z,31.10
2022-08-03T20:38:46.970Z,31.00
2022-08-03T20:53:59.629Z,31.10
2022-08-03T21:09:07.661Z,30.60
2022-08-03T21:13:02.097Z,31.80
2022-08-03T21:24:16.128Z,30.20
2022-08-03T21:39:20.590Z,30.10
2022-08-03T21:54:31.958Z,29.80
2022-08-03T22:09:36.740Z,29.90
2022-08-03T22:24:44.609Z,29.80
2022-08-03T22:39:49.193Z,29.60
2022-08-03T22:54:54.123Z,29.40
2022-08-03T23:09:59.140Z,28.90
2022-08-03T23:25:04.722Z,29.00
2022-08-03T23:40:10.784Z,28.90
2022-08-03T23:55:30.147Z,29.00
